sensor_id;sensor_type;location;lat;lon;timestamp;pressure;altitude;pressure_sealevel;temperature;humidity
39793;BME280;26080;42.264;24.536;2023-04-19T00:01:21;98872.09;;;10.03;100.00
39793;BME280;26080;42.264;24.536;2023-04-19T00:03:47;98857.47;;;9.99;100.00
39793;BME280;26080;42.264;24.536;2023-04-19T00:06:13;98863.53;;;10.00;100.00
39793;BME280;26080;42.264;24.536;2023-04-19T00:08:39;98868.16;;;9.95;100.00
39793;BME280;26080;42.264;24.536;2023-04-19T00:11:06;98852.72;;;9.90;100.00
39793;BME280;26080;42.264;24.536;2023-04-19T00:13:32;98855.56;;;9.86;100.00
39793;BME280;26080;42.264;24.536;2023-04-19T00:15:57;98853.72;;;9.88;100.00
39793;BME280;26080;42.264;24.536;2023-04-19T00:18:23;98827.28;;;9.76;100.00
39793;BME280;26080;42.264;24.536;2023-04-19T00:20:48;98852.19;;;9.84;100.00
39793;BME280;26080;42.264;24.536;2023-04-19T00:23:14;98837.19;;;9.87;100.00
39793;BME280;26080;42.264;24.536;2023-04-19T00:25:39;98836.19;;;9.90;100.00
39793;BME280;26080;42.264;24.536;2023-04-19T00:28:05;98828.94;;;9.95;100.00
39793;BME280;26080;42.264;24.536;2023-04-19T00:30:30;98834.25;;;9.93;100.00
39793;BME280;26080;42.264;24.536;2023-04-19T00:32:55;98822.00;;;9.94;100.00
39793;BME280;26080;42.264;24.536;2023-04-19T00:35:21;98830.78;;;9.93;100.00
39793;BME280;26080;42.264;24.536;2023-04-19T00:37:46;98828.47;;;9.87;100.00
39793;BME280;26080;42.264;24.536;2023-04-19T00:40:11;98801.59;;;9.67;100.00
39793;BME280;26080;42.264;24.536;2023-04-19T00:42:37;98815.59;;;9.66;100.00
39793;BME280;26080;42.264;24.536;2023-04-19T00:45:04;98828.34;;;9.72;100.00
39793;BME280;26080;42.264;24.536;2023-04-19T00:47:29;98830.94;;;9.72;100.00
39793;BME280;26080;42.264;24.536;2023-04-19T00:49:55;98828.34;;;9.72;100.00
39793;BME280;26080;42.264;24.536;2023-04-19T00:52:21;98819.22;;;9.64;100.00
39793;BME280;26080;42.264;24.536;2023-04-19T00:54:47;98830.34;;;9.67;100.00
39793;BME280;26080;42.264;24.536;2023-04-19T00:57:14;98833.88;;;9.66;100.00
39793;BME280;26080;42.264;24.536;2023-04-19T00:59:40;98833.88;;;9.66;100.00
39793;BME280;26080;42.264;24.536;2023-04-19T01:02:05;98819.13;;;9.65;100.00
39793;BME280;26080;42.264;24.536;2023-04-19T01:04:31;98825.28;;;9.64;100.00
39793;BME280;26080;42.264;24.536;2023-04-19T01:06:57;98821.06;;;9.62;100.00
39793;BME280;26080;42.264;24.536;2023-04-19T01:09:23;98823.59;;;9.63;100.00
39793;BME280;26080;42.264;24.536;2023-04-19T01:11:49;98818.53;;;9.60;100.00
39793;BME280;26080;42.264;24.536;2023-04-19T01:14:15;98813.44;;;9.57;100.00
39793;BME280;26080;42.264;24.536;2023-04-19T01:16:40;98765.09;;;9.31;100.00
39793;BME280;26080;42.264;24.536;2023-04-19T01:19:06;98811.75;;;9.56;100.00
39793;BME280;26080;42.264;24.536;2023-04-19T01:21:31;98802.97;;;9.57;100.00
39793;BME280;26080;42.264;24.536;2023-04-19T01:23:57;98806.50;;;9.56;100.00
39793;BME280;26080;42.264;24.536;2023-04-19T01:26:24;98803.13;;;9.54;100.00
39793;BME280;26080;42.264;24.536;2023-04-19T01:28:49;98803.13;;;9.54;100.00
39793;BME280;26080;42.264;24.536;2023-04-19T01:31:15;98798.00;;;9.53;100.00
39793;BME280;26080;42.264;24.536;2023-04-19T01:33:40;98797.41;;;9.47;100.00
39793;BME280;26080;42.264;24.536;2023-04-19T01:36:06;98798.38;;;9.45;100.00
39793;BME280;26080;42.264;24.536;2023-04-19T01:38:32;98788.06;;;9.42;100.00
39793;BME280;26080;42.264;24.536;2023-04-19T01:40:59;98782.47;;;9.49;100.00
39793;BME280;26080;42.264;24.536;2023-04-19T01:43:24;98784.75;;;9.56;100.00
39793;BME280;26080;42.264;24.536;2023-04-19T01:45:49;98789.69;;;9.62;100.00
39793;BME280;26080;42.264;24.536;2023-04-19T01:48:15;98776.16;;;9.54;100.00
39793;BME280;26080;42.264;24.536;2023-04-19T01:50:40;98785.94;;;9.50;100.00
39793;BME280;26080;42.264;24.536;2023-04-19T01:53:06;98776.47;;;9.47;100.00
39793;BME280;26080;42.264;24.536;2023-04-19T01:55:31;98771.38;;;9.44;100.00
39793;BME280;26080;42.264;24.536;2023-04-19T01:57:56;98769.78;;;9.42;100.00
39793;BME280;26080;42.264;24.536;2023-04-19T02:00:22;98778.63;;;9.39;100.00
39793;BME280;26080;42.264;24.536;2023-04-19T02:02:47;98767.50;;;9.36;100.00
39793;BME280;26080;42.264;24.536;2023-04-19T02:05:13;98769.19;;;9.37;100.00
39793;BME280;26080;42.264;24.536;2023-04-19T02:07:39;98763.13;;;9.36;100.00
39793;BME280;26080;42.264;24.536;2023-04-19T02:10:05;98737.44;;;9.27;100.00
39793;BME280;26080;42.264;24.536;2023-04-19T02:12:31;98736.13;;;9.36;100.00
39793;BME280;26080;42.264;24.536;2023-04-19T02:14:59;98760.25;;;9.41;100.00
39793;BME280;26080;42.264;24.536;2023-04-19T02:17:26;98764.19;;;9.32;100.00
39793;BME280;26080;42.264;24.536;2023-04-19T02:19:51;98732.59;;;9.02;100.00
39793;BME280;26080;42.264;24.536;2023-04-19T02:22:17;98756.25;;;9.16;100.00
39793;BME280;26080;42.264;24.536;2023-04-19T02:24:43;98761.47;;;9.16;100.00
39793;BME280;26080;42.264;24.536;2023-04-19T02:27:09;98714.16;;;8.88;100.00
39793;BME280;26080;42.264;24.536;2023-04-19T02:29:34;98755.72;;;9.10;100.00
39793;BME280;26080;42.264;24.536;2023-04-19T02:32:00;98754.88;;;9.09;100.00
39793;BME280;26080;42.264;24.536;2023-04-19T02:34:26;98739.22;;;8.92;100.00
39793;BME280;26080;42.264;24.536;2023-04-19T02:36:52;98755.19;;;9.03;100.00
39793;BME280;26080;42.264;24.536;2023-04-19T02:39:17;98748.44;;;8.99;100.00
39793;BME280;26080;42.264;24.536;2023-04-19T02:41:42;98740.91;;;8.93;100.00
39793;BME280;26080;42.264;24.536;2023-04-19T02:44:08;98746.75;;;8.98;100.00
39793;BME280;26080;42.264;24.536;2023-04-19T02:46:33;98726.38;;;8.87;100.00
39793;BME280;26080;42.264;24.536;2023-04-19T02:49:02;98733.19;;;8.90;100.00
39793;BME280;26080;42.264;24.536;2023-04-19T02:51:27;98718.00;;;8.81;100.00
39793;BME280;26080;42.264;24.536;2023-04-19T02:53:53;98704.78;;;8.67;100.00
39793;BME280;26080;42.264;24.536;2023-04-19T02:56:19;98749.72;;;8.90;100.00
39793;BME280;26080;42.264;24.536;2023-04-19T02:58:44;98741.84;;;8.92;100.00
39793;BME280;26080;42.264;24.536;2023-04-19T03:01:10;98741.84;;;8.92;100.00
39793;BME280;26080;42.264;24.536;2023-04-19T03:03:35;98739.97;;;8.94;100.00
39793;BME280;26080;42.264;24.536;2023-04-19T03:06:01;98744.19;;;8.97;100.00
39793;BME280;26080;42.264;24.536;2023-04-19T03:08:27;98746.41;;;9.04;100.00
39793;BME280;26080;42.264;24.536;2023-04-19T03:10:53;98742.75;;;9.08;100.00
39793;BME280;26080;42.264;24.536;2023-04-19T03:13:19;98743.34;;;9.13;100.00
39793;BME280;26080;42.264;24.536;2023-04-19T03:15:45;98746.59;;;9.18;100.00
39793;BME280;26080;42.264;24.536;2023-04-19T03:18:11;98738.53;;;9.23;100.00
39793;BME280;26080;42.264;24.536;2023-04-19T03:20:37;98744.59;;;9.24;100.00
39793;BME280;26080;42.264;24.536;2023-04-19T03:23:15;98724.31;;;9.11;100.00
39793;BME280;26080;42.264;24.536;2023-04-19T03:25:40;98741.66;;;9.30;100.00
39793;BME280;26080;42.264;24.536;2023-04-19T03:28:06;98740.91;;;9.28;100.00
39793;BME280;26080;42.264;24.536;2023-04-19T03:30:32;98721.78;;;9.10;100.00
39793;BME280;26080;42.264;24.536;2023-04-19T03:35:49;98741.53;;;9.33;100.00
39793;BME280;26080;42.264;24.536;2023-04-19T03:38:33;98749.13;;;9.37;100.00
39793;BME280;26080;42.264;24.536;2023-04-19T03:41:38;98741.34;;;9.36;100.00
39793;BME280;26080;42.264;24.536;2023-04-19T03:44:04;98725.63;;;9.20;100.00
39793;BME280;26080;42.264;24.536;2023-04-19T03:46:29;98749.38;;;9.33;100.00
39793;BME280;26080;42.264;24.536;2023-04-19T03:48:56;98748.34;;;9.35;100.00
39793;BME280;26080;42.264;24.536;2023-04-19T03:51:21;98729.28;;;9.16;100.00
39793;BME280;26080;42.264;24.536;2023-04-19T03:53:47;98752.50;;;9.39;100.00
39793;BME280;26080;42.264;24.536;2023-04-19T03:56:12;98751.47;;;9.42;100.00
39793;BME280;26080;42.264;24.536;2023-04-19T03:58:38;98726.28;;;9.41;100.00
39793;BME280;26080;42.264;24.536;2023-04-19T04:01:03;98740.31;;;9.56;100.00
39793;BME280;26080;42.264;24.536;2023-04-19T04:03:29;98747.63;;;9.66;100.00
39793;BME280;26080;42.264;24.536;2023-04-19T04:05:54;98746.69;;;9.67;100.00
39793;BME280;26080;42.264;24.536;2023-04-19T04:08:20;98754.06;;;9.59;100.00
39793;BME280;26080;42.264;24.536;2023-04-19T04:10:45;98748.69;;;9.62;100.00
39793;BME280;26080;42.264;24.536;2023-04-19T04:13:11;98743.06;;;9.70;100.00
39793;BME280;26080;42.264;24.536;2023-04-19T04:15:36;98752.84;;;9.66;100.00
39793;BME280;26080;42.264;24.536;2023-04-19T04:18:02;98745.00;;;9.66;100.00
39793;BME280;26080;42.264;24.536;2023-04-19T04:20:27;98754.44;;;9.69;100.00
39793;BME280;26080;42.264;24.536;2023-04-19T04:22:53;98752.28;;;9.77;100.00
39793;BME280;26080;42.264;24.536;2023-04-19T04:25:18;98744.84;;;9.85;100.00
39793;BME280;26080;42.264;24.536;2023-04-19T04:27:57;98718.38;;;9.75;100.00
39793;BME280;26080;42.264;24.536;2023-04-19T04:30:32;98741.00;;;9.92;100.00
39793;BME280;26080;42.264;24.536;2023-04-19T04:32:58;98729.88;;;9.89;100.00
39793;BME280;26080;42.264;24.536;2023-04-19T04:35:24;98746.81;;;9.97;100.00
39793;BME280;26080;42.264;24.536;2023-04-19T04:37:50;98756.22;;;10.01;100.00
39793;BME280;26080;42.264;24.536;2023-04-19T04:40:18;98731.56;;;9.90;100.00
39793;BME280;26080;42.264;24.536;2023-04-19T04:42:43;98759.91;;;10.13;100.00
39793;BME280;26080;42.264;24.536;2023-04-19T04:45:09;98763.00;;;10.21;100.00
39793;BME280;26080;42.264;24.536;2023-04-19T04:47:36;98762.66;;;10.27;100.00
39793;BME280;26080;42.264;24.536;2023-04-19T04:50:02;98755.91;;;10.23;100.00
39793;BME280;26080;42.264;24.536;2023-04-19T04:52:28;98773.31;;;10.24;100.00
39793;BME280;26080;42.264;24.536;2023-04-19T04:54:53;98742.72;;;10.09;100.00
39793;BME280;26080;42.264;24.536;2023-04-19T04:57:18;98761.28;;;10.20;100.00
39793;BME280;26080;42.264;24.536;2023-04-19T04:59:44;98762.00;;;10.24;100.00
39793;BME280;26080;42.264;24.536;2023-04-19T05:02:12;98757.28;;;10.30;100.00
39793;BME280;26080;42.264;24.536;2023-04-19T05:04:38;98764.22;;;10.31;100.00
39793;BME280;26080;42.264;24.536;2023-04-19T05:07:03;98767.59;;;10.33;100.00
39793;BME280;26080;42.264;24.536;2023-04-19T05:09:28;98772.16;;;10.30;100.00
39793;BME280;26080;42.264;24.536;2023-04-19T05:11:54;98773.00;;;10.30;100.00
39793;BME280;26080;42.264;24.536;2023-04-19T05:14:19;98768.25;;;10.21;100.00
39793;BME280;26080;42.264;24.536;2023-04-19T05:16:45;98769.75;;;10.25;100.00
39793;BME280;26080;42.264;24.536;2023-04-19T05:19:10;98773.00;;;10.30;100.00
39793;BME280;26080;42.264;24.536;2023-04-19T05:21:36;98777.88;;;10.36;100.00
39793;BME280;26080;42.264;24.536;2023-04-19T05:24:01;98775.88;;;10.42;100.00
39793;BME280;26080;42.264;24.536;2023-04-19T05:26:27;98777.47;;;10.44;100.00
39793;BME280;26080;42.264;24.536;2023-04-19T05:28:52;98761.34;;;10.36;100.00
39793;BME280;26080;42.264;24.536;2023-04-19T05:31:18;98780.09;;;10.60;100.00
39793;BME280;26080;42.264;24.536;2023-04-19T05:33:45;98777.09;;;10.66;100.00
39793;BME280;26080;42.264;24.536;2023-04-19T05:36:10;98775.44;;;10.65;100.00
39793;BME280;26080;42.264;24.536;2023-04-19T05:38:36;98775.25;;;10.68;100.00
39793;BME280;26080;42.264;24.536;2023-04-19T05:41:04;98774.47;;;10.82;100.00
39793;BME280;26080;42.264;24.536;2023-04-19T05:43:30;98737.91;;;10.64;100.00
39793;BME280;26080;42.264;24.536;2023-04-19T05:45:56;98776.41;;;10.94;100.00
39793;BME280;26080;42.264;24.536;2023-04-19T05:48:22;98781.50;;;10.97;100.00
39793;BME280;26080;42.264;24.536;2023-04-19T05:50:47;98778.69;;;11.00;100.00
39793;BME280;26080;42.264;24.536;2023-04-19T05:53:13;98775.59;;;11.08;100.00
39793;BME280;26080;42.264;24.536;2023-04-19T05:55:38;98780.84;;;11.08;100.00
39793;BME280;26080;42.264;24.536;2023-04-19T05:58:04;98775.38;;;11.12;100.00
39793;BME280;26080;42.264;24.536;2023-04-19T06:00:29;98764.59;;;11.17;100.00
39793;BME280;26080;42.264;24.536;2023-04-19T06:02:55;98771.19;;;11.24;100.00
39793;BME280;26080;42.264;24.536;2023-04-19T06:05:20;98780.66;;;11.26;100.00
39793;BME280;26080;42.264;24.536;2023-04-19T06:07:46;98782.72;;;11.36;100.00
39793;BME280;26080;42.264;24.536;2023-04-19T06:10:12;98781.53;;;11.41;100.00
39793;BME280;26080;42.264;24.536;2023-04-19T06:12:38;98758.66;;;11.29;100.00
39793;BME280;26080;42.264;24.536;2023-04-19T06:15:04;98754.72;;;11.36;100.00
39793;BME280;26080;42.264;24.536;2023-04-19T06:17:30;98783.06;;;11.60;100.00
39793;BME280;26080;42.264;24.536;2023-04-19T06:19:55;98779.38;;;11.62;100.00
39793;BME280;26080;42.264;24.536;2023-04-19T06:22:21;98787.56;;;11.72;100.00
39793;BME280;26080;42.264;24.536;2023-04-19T06:24:47;98781.19;;;11.62;100.00
39793;BME280;26080;42.264;24.536;2023-04-19T06:27:14;98780.44;;;11.74;100.00
39793;BME280;26080;42.264;24.536;2023-04-19T06:29:40;98761.78;;;11.78;100.00
39793;BME280;26080;42.264;24.536;2023-04-19T06:32:06;98736.22;;;11.68;100.00
39793;BME280;26080;42.264;24.536;2023-04-19T06:34:31;98783.69;;;12.07;100.00
39793;BME280;26080;42.264;24.536;2023-04-19T06:36:57;98788.53;;;12.13;100.00
39793;BME280;26080;42.264;24.536;2023-04-19T06:39:22;98782.13;;;12.32;100.00
39793;BME280;26080;42.264;24.536;2023-04-19T06:41:48;98788.16;;;12.48;100.00
39793;BME280;26080;42.264;24.536;2023-04-19T06:44:13;98787.00;;;12.52;100.00
39793;BME280;26080;42.264;24.536;2023-04-19T06:46:39;98793.00;;;12.54;100.00
39793;BME280;26080;42.264;24.536;2023-04-19T06:49:05;98795.78;;;12.65;100.00
39793;BME280;26080;42.264;24.536;2023-04-19T06:51:31;98753.81;;;12.51;100.00
39793;BME280;26080;42.264;24.536;2023-04-19T06:53:57;98807.94;;;12.81;100.00
39793;BME280;26080;42.264;24.536;2023-04-19T06:56:47;98802.28;;;12.87;100.00
39793;BME280;26080;42.264;24.536;2023-04-19T06:59:15;98788.28;;;12.86;100.00
39793;BME280;26080;42.264;24.536;2023-04-19T07:01:42;98804.53;;;12.93;100.00
39793;BME280;26080;42.264;24.536;2023-04-19T07:04:08;98804.91;;;12.87;100.00
39793;BME280;26080;42.264;24.536;2023-04-19T07:06:37;98805.31;;;12.81;100.00
39793;BME280;26080;42.264;24.536;2023-04-19T07:09:04;98813.06;;;12.96;100.00
39793;BME280;26080;42.264;24.536;2023-04-19T07:11:30;98805.63;;;13.03;100.00
39793;BME280;26080;42.264;24.536;2023-04-19T07:13:56;98803.22;;;13.13;100.00
39793;BME280;26080;42.264;24.536;2023-04-19T07:16:21;98812.16;;;13.10;100.00
39793;BME280;26080;42.264;24.536;2023-04-19T07:18:47;98801.59;;;13.24;100.00
39793;BME280;26080;42.264;24.536;2023-04-19T07:21:12;98777.59;;;13.16;100.00
39793;BME280;26080;42.264;24.536;2023-04-19T07:23:38;98808.41;;;13.54;100.00
39793;BME280;26080;42.264;24.536;2023-04-19T07:26:03;98804.94;;;13.66;100.00
39793;BME280;26080;42.264;24.536;2023-04-19T07:28:29;98808.97;;;13.84;100.00
39793;BME280;26080;42.264;24.536;2023-04-19T07:30:55;98802.53;;;13.88;100.00
39793;BME280;26080;42.264;24.536;2023-04-19T07:33:22;98791.06;;;13.77;100.00
39793;BME280;26080;42.264;24.536;2023-04-19T07:35:47;98815.38;;;14.06;100.00
39793;BME280;26080;42.264;24.536;2023-04-19T07:38:13;98801.56;;;14.28;100.00
39793;BME280;26080;42.264;24.536;2023-04-19T07:40:38;98807.38;;;14.20;100.00
39793;BME280;26080;42.264;24.536;2023-04-19T07:43:04;98818.41;;;14.25;100.00
39793;BME280;26080;42.264;24.536;2023-04-19T07:45:30;98816.00;;;14.47;100.00
39793;BME280;26080;42.264;24.536;2023-04-19T07:47:56;98822.06;;;14.61;100.00
39793;BME280;26080;42.264;24.536;2023-04-19T07:50:23;98815.59;;;14.77;100.00
39793;BME280;26080;42.264;24.536;2023-04-19T07:52:50;98819.38;;;14.86;100.00
39793;BME280;26080;42.264;24.536;2023-04-19T07:55:15;98818.78;;;14.70;100.00
39793;BME280;26080;42.264;24.536;2023-04-19T07:57:41;98822.13;;;14.85;100.00
39793;BME280;26080;42.264;24.536;2023-04-19T08:00:13;98810.00;;;15.06;100.00
39793;BME280;26080;42.264;24.536;2023-04-19T08:02:42;98824.31;;;15.15;100.00
39793;BME280;26080;42.264;24.536;2023-04-19T08:05:07;98824.41;;;15.37;100.00
39793;BME280;26080;42.264;24.536;2023-04-19T08:07:33;98818.06;;;15.63;100.00
39793;BME280;26080;42.264;24.536;2023-04-19T08:09:58;98821.47;;;15.77;100.00
39793;BME280;26080;42.264;24.536;2023-04-19T08:12:24;98823.97;;;15.89;100.00
39793;BME280;26080;42.264;24.536;2023-04-19T08:14:49;98819.06;;;15.96;100.00
39793;BME280;26080;42.264;24.536;2023-04-19T08:17:15;98822.69;;;16.06;100.00
39793;BME280;26080;42.264;24.536;2023-04-19T08:19:44;98818.00;;;16.10;100.00
39793;BME280;26080;42.264;24.536;2023-04-19T08:22:10;98821.50;;;16.21;100.00
39793;BME280;26080;42.264;24.536;2023-04-19T08:24:35;98821.03;;;16.05;100.00
39793;BME280;26080;42.264;24.536;2023-04-19T08:27:02;98813.81;;;16.07;100.00
39793;BME280;26080;42.264;24.536;2023-04-19T08:29:27;98809.47;;;16.28;100.00
39793;BME280;26080;42.264;24.536;2023-04-19T08:31:52;98815.00;;;16.14;100.00
39793;BME280;26080;42.264;24.536;2023-04-19T08:34:18;98796.03;;;16.09;100.00
39793;BME280;26080;42.264;24.536;2023-04-19T08:36:43;98810.81;;;16.12;100.00
39793;BME280;26080;42.264;24.536;2023-04-19T08:39:11;98797.97;;;16.18;100.00
39793;BME280;26080;42.264;24.536;2023-04-19T08:41:37;98806.81;;;15.84;100.00
39793;BME280;26080;42.264;24.536;2023-04-19T08:44:04;98804.09;;;16.19;100.00
39793;BME280;26080;42.264;24.536;2023-04-19T08:46:31;98798.44;;;16.23;100.00
39793;BME280;26080;42.264;24.536;2023-04-19T08:48:58;98800.38;;;16.21;100.00
39793;BME280;26080;42.264;24.536;2023-04-19T08:51:25;98798.56;;;16.11;100.00
39793;BME280;26080;42.264;24.536;2023-04-19T08:53:51;98795.81;;;16.23;100.00
39793;BME280;26080;42.264;24.536;2023-04-19T08:56:16;98770.47;;;16.10;100.00
39793;BME280;26080;42.264;24.536;2023-04-19T08:58:42;98788.59;;;16.14;100.00
39793;BME280;26080;42.264;24.536;2023-04-19T09:01:08;98778.00;;;16.03;100.00
39793;BME280;26080;42.264;24.536;2023-04-19T09:03:34;98785.00;;;15.93;100.00
39793;BME280;26080;42.264;24.536;2023-04-19T09:06:00;98787.00;;;15.78;100.00
39793;BME280;26080;42.264;24.536;2023-04-19T09:08:28;98782.09;;;15.85;100.00
39793;BME280;26080;42.264;24.536;2023-04-19T09:10:56;98784.72;;;15.74;100.00
39793;BME280;26080;42.264;24.536;2023-04-19T09:13:21;98756.09;;;15.21;100.00
39793;BME280;26080;42.264;24.536;2023-04-19T09:15:47;98775.53;;;15.55;100.00
39793;BME280;26080;42.264;24.536;2023-04-19T09:18:12;98779.22;;;15.77;100.00
39793;BME280;26080;42.264;24.536;2023-04-19T09:20:43;98785.44;;;15.87;100.00
39793;BME280;26080;42.264;24.536;2023-04-19T09:23:13;98786.69;;;16.05;100.00
39793;BME280;26080;42.264;24.536;2023-04-19T09:25:49;98765.44;;;16.18;100.00
39793;BME280;26080;42.264;24.536;2023-04-19T09:28:15;98779.44;;;16.63;100.00
39793;BME280;26080;42.264;24.536;2023-04-19T09:30:40;98776.22;;;17.03;100.00
39793;BME280;26080;42.264;24.536;2023-04-19T09:33:06;98778.59;;;17.38;100.00
39793;BME280;26080;42.264;24.536;2023-04-19T09:35:42;98776.56;;;17.41;100.00
39793;BME280;26080;42.264;24.536;2023-04-19T09:38:11;98779.25;;;17.51;100.00
39793;BME280;26080;42.264;24.536;2023-04-19T09:40:38;98772.25;;;17.82;100.00
39793;BME280;26080;42.264;24.536;2023-04-19T09:43:04;98754.84;;;17.89;100.00
39793;BME280;26080;42.264;24.536;2023-04-19T09:45:43;98739.59;;;17.82;100.00
39793;BME280;26080;42.264;24.536;2023-04-19T09:48:10;98763.59;;;18.11;100.00
39793;BME280;26080;42.264;24.536;2023-04-19T09:50:50;98762.09;;;18.18;100.00
39793;BME280;26080;42.264;24.536;2023-04-19T09:53:17;98747.66;;;18.01;97.85
39793;BME280;26080;42.264;24.536;2023-04-19T09:55:43;98758.06;;;18.23;100.00
39793;BME280;26080;42.264;24.536;2023-04-19T09:58:10;98756.09;;;18.16;99.02
39793;BME280;26080;42.264;24.536;2023-04-19T10:00:36;98745.66;;;18.24;94.21
39793;BME280;26080;42.264;24.536;2023-04-19T10:03:05;98748.47;;;18.32;98.23
39793;BME280;26080;42.264;24.536;2023-04-19T10:05:31;98747.28;;;18.55;90.60
39793;BME280;26080;42.264;24.536;2023-04-19T10:07:57;98738.34;;;18.56;89.33
39793;BME280;26080;42.264;24.536;2023-04-19T10:10:28;98749.84;;;18.67;89.26
39793;BME280;26080;42.264;24.536;2023-04-19T10:12:55;98741.22;;;18.84;86.14
39793;BME280;26080;42.264;24.536;2023-04-19T10:15:22;98735.50;;;18.79;86.87
39793;BME280;26080;42.264;24.536;2023-04-19T10:17:48;98742.06;;;18.94;90.54
39793;BME280;26080;42.264;24.536;2023-04-19T10:20:21;98745.25;;;18.88;84.76
39793;BME280;26080;42.264;24.536;2023-04-19T10:22:48;98737.00;;;18.91;85.22
39793;BME280;26080;42.264;24.536;2023-04-19T10:25:14;98737.44;;;19.15;86.48
39793;BME280;26080;42.264;24.536;2023-04-19T10:27:42;98737.75;;;19.22;80.25
39793;BME280;26080;42.264;24.536;2023-04-19T10:30:18;98732.44;;;18.93;81.67
39793;BME280;26080;42.264;24.536;2023-04-19T10:32:46;98728.94;;;18.83;83.47
39793;BME280;26080;42.264;24.536;2023-04-19T10:35:24;98734.66;;;18.78;78.58
39793;BME280;26080;42.264;24.536;2023-04-19T10:38:19;98724.03;;;18.98;80.75
39793;BME280;26080;42.264;24.536;2023-04-19T10:43:21;98718.72;;;19.27;84.62
39793;BME280;26080;42.264;24.536;2023-04-19T10:45:47;98708.81;;;19.19;80.13
39793;BME280;26080;42.264;24.536;2023-04-19T10:51:15;98700.00;;;19.94;78.64
39793;BME280;26080;42.264;24.536;2023-04-19T10:56:16;98673.56;;;20.20;77.96
39793;BME280;26080;42.264;24.536;2023-04-19T11:01:43;98697.81;;;20.35;75.81
39793;BME280;26080;42.264;24.536;2023-04-19T11:04:11;98700.03;;;20.39;78.85
39793;BME280;26080;42.264;24.536;2023-04-19T11:06:55;98683.91;;;20.23;78.94
39793;BME280;26080;42.264;24.536;2023-04-19T11:11:52;98700.16;;;20.20;74.09
39793;BME280;26080;42.264;24.536;2023-04-19T11:14:19;98695.38;;;20.24;76.21
39793;BME280;26080;42.264;24.536;2023-04-19T11:16:45;98691.88;;;20.23;70.79
39793;BME280;26080;42.264;24.536;2023-04-19T11:19:14;98704.59;;;20.02;68.34
39793;BME280;26080;42.264;24.536;2023-04-19T11:21:40;98710.47;;;19.30;77.82
39793;BME280;26080;42.264;24.536;2023-04-19T11:24:09;98705.31;;;18.11;86.02
39793;BME280;26080;42.264;24.536;2023-04-19T11:26:35;98719.25;;;17.61;91.81
39793;BME280;26080;42.264;24.536;2023-04-19T11:29:01;98730.31;;;16.49;97.18
39793;BME280;26080;42.264;24.536;2023-04-19T11:31:26;98718.13;;;15.92;94.60
39793;BME280;26080;42.264;24.536;2023-04-19T11:33:52;98719.94;;;15.81;99.12
39793;BME280;26080;42.264;24.536;2023-04-19T11:36:18;98728.59;;;15.48;100.00
39793;BME280;26080;42.264;24.536;2023-04-19T11:38:47;98730.03;;;15.40;100.00
39793;BME280;26080;42.264;24.536;2023-04-19T11:41:13;98686.47;;;14.54;100.00
39793;BME280;26080;42.264;24.536;2023-04-19T11:43:38;98726.94;;;14.40;100.00
39793;BME280;26080;42.264;24.536;2023-04-19T11:46:09;98713.28;;;14.22;100.00
39793;BME280;26080;42.264;24.536;2023-04-19T11:48:35;98716.69;;;14.11;100.00
39793;BME280;26080;42.264;24.536;2023-04-19T11:51:01;98720.28;;;13.98;100.00
39793;BME280;26080;42.264;24.536;2023-04-19T11:53:29;98714.63;;;13.91;100.00
39793;BME280;26080;42.264;24.536;2023-04-19T11:55:56;98723.44;;;14.03;100.00
39793;BME280;26080;42.264;24.536;2023-04-19T12:03:28;98732.03;;;14.30;100.00
39793;BME280;26080;42.264;24.536;2023-04-19T12:05:57;98732.22;;;14.40;100.00
39793;BME280;26080;42.264;24.536;2023-04-19T12:08:32;98736.72;;;14.50;100.00
39793;BME280;26080;42.264;24.536;2023-04-19T12:10:58;98746.94;;;14.55;100.00
39793;BME280;26080;42.264;24.536;2023-04-19T12:13:24;98738.94;;;14.57;100.00
39793;BME280;26080;42.264;24.536;2023-04-19T12:15:50;98731.19;;;14.66;100.00
39793;BME280;26080;42.264;24.536;2023-04-19T12:18:16;98733.09;;;14.64;100.00
39793;BME280;26080;42.264;24.536;2023-04-19T12:20:47;98728.72;;;14.52;100.00
39793;BME280;26080;42.264;24.536;2023-04-19T12:23:14;98686.09;;;14.21;100.00
39793;BME280;26080;42.264;24.536;2023-04-19T12:25:41;98727.13;;;14.49;100.00
39793;BME280;26080;42.264;24.536;2023-04-19T12:28:07;98730.91;;;14.58;100.00
39793;BME280;26080;42.264;24.536;2023-04-19T12:30:34;98714.63;;;14.64;100.00
39793;BME280;26080;42.264;24.536;2023-04-19T12:33:01;98729.31;;;14.68;100.00
39793;BME280;26080;42.264;24.536;2023-04-19T12:35:27;98730.56;;;14.63;100.00
39793;BME280;26080;42.264;24.536;2023-04-19T12:37:54;98721.50;;;14.67;100.00
39793;BME280;26080;42.264;24.536;2023-04-19T12:40:20;98685.13;;;14.35;100.00
39793;BME280;26080;42.264;24.536;2023-04-19T12:42:45;98680.44;;;14.51;100.00
39793;BME280;26080;42.264;24.536;2023-04-19T12:45:12;98718.78;;;15.03;100.00
39793;BME280;26080;42.264;24.536;2023-04-19T12:47:38;98715.72;;;15.32;100.00
39793;BME280;26080;42.264;24.536;2023-04-19T12:50:05;98713.88;;;15.56;100.00
39793;BME280;26080;42.264;24.536;2023-04-19T12:52:30;98708.03;;;15.86;100.00
39793;BME280;26080;42.264;24.536;2023-04-19T12:54:56;98705.78;;;16.04;100.00
39793;BME280;26080;42.264;24.536;2023-04-19T12:57:21;98683.31;;;15.98;100.00
39793;BME280;26080;42.264;24.536;2023-04-19T12:59:50;98689.19;;;16.02;100.00
39793;BME280;26080;42.264;24.536;2023-04-19T13:02:15;98706.56;;;16.16;100.00
39793;BME280;26080;42.264;24.536;2023-04-19T13:04:44;98702.38;;;16.02;100.00